Time;durP1;ratioP1;P1;durP2;ratioP2;P2;SDS_P1;SDS_P2;PMS_P1;PMS_P2;Temp;Humidity;BMP_temperature;BMP_pressure;BME280_temperature;BME280_humidity;BME280_pressure;Samples;Min_cycle;Max_cycle;Signal;HPM_P1;HPM_P2
2021/05/26 00:01:23;;;;;;;11.83;4.90;;;;;;;;;;5071719;28;20031;-68
2021/05/26 00:03:50;;;;;;;11.07;4.80;;;;;;;;;;5072534;28;20504;-68
2021/05/26 00:06:15;;;;;;;12.13;5.27;;;;;;;;;;5072298;28;20191;-68
2021/05/26 00:08:41;;;;;;;11.50;5.93;;;;;;;;;;5072754;28;20115;-68
2021/05/26 00:11:11;;;;;;;13.63;5.33;;;;;;;;;;5072695;28;20074;-68
2021/05/26 00:13:36;;;;;;;9.00;4.80;;;;;;;;;;5072340;28;20029;-68
2021/05/26 00:16:02;;;;;;;12.93;5.17;;;;;;;;;;5073106;28;20094;-68
2021/05/26 00:18:27;;;;;;;7.47;3.93;;;;;;;;;;5072837;28;20039;-68
2021/05/26 00:20:53;;;;;;;12.23;4.60;;;;;;;;;;5072357;28;20063;-68
2021/05/26 00:23:19;;;;;;;9.77;4.53;;;;;;;;;;5072885;28;20020;-68
2021/05/26 00:25:45;;;;;;;9.93;5.17;;;;;;;;;;5068141;28;20020;-68
2021/05/26 00:28:10;;;;;;;9.73;5.47;;;;;;;;;;5072842;28;20058;-68
2021/05/26 00:30:43;;;;;;;11.83;5.30;;;;;;;;;;5072647;28;20050;-68
2021/05/26 00:33:08;;;;;;;9.53;4.40;;;;;;;;;;5069304;28;20032;-68
2021/05/26 00:35:33;;;;;;;8.83;4.77;;;;;;;;;;5070312;28;20025;-68
2021/05/26 00:37:58;;;;;;;15.77;4.83;;;;;;;;;;5071506;28;20024;-68
2021/05/26 00:40:24;;;;;;;12.63;4.83;;;;;;;;;;5070492;28;20036;-68
2021/05/26 00:42:49;;;;;;;17.70;5.00;;;;;;;;;;5072438;28;20025;-68
2021/05/26 00:45:17;;;;;;;11.50;5.20;;;;;;;;;;5071793;28;20391;-68
2021/05/26 00:47:44;;;;;;;11.20;5.13;;;;;;;;;;5072716;28;20029;-68
2021/05/26 00:50:10;;;;;;;12.20;4.70;;;;;;;;;;5072559;28;20025;-68
2021/05/26 00:52:36;;;;;;;10.40;4.90;;;;;;;;;;5072149;28;20031;-68
2021/05/26 00:55:03;;;;;;;10.60;4.27;;;;;;;;;;5070660;28;20391;-68
2021/05/26 00:57:28;;;;;;;10.33;5.17;;;;;;;;;;5069069;28;20036;-68
2021/05/26 00:59:53;;;;;;;12.43;5.77;;;;;;;;;;5072714;28;20033;-68
2021/05/26 01:02:18;;;;;;;11.40;5.33;;;;;;;;;;5069366;28;20098;-68
2021/05/26 01:04:44;;;;;;;14.97;6.20;;;;;;;;;;5069602;28;20050;-68
2021/05/26 01:07:10;;;;;;;10.67;5.40;;;;;;;;;;5072964;28;20419;-68
2021/05/26 01:09:35;;;;;;;11.53;5.97;;;;;;;;;;5071453;28;20100;-68
2021/05/26 01:12:00;;;;;;;14.77;5.73;;;;;;;;;;5071685;28;20103;-68
2021/05/26 01:14:26;;;;;;;14.70;5.90;;;;;;;;;;5071320;28;20479;-68
2021/05/26 01:16:51;;;;;;;9.87;4.87;;;;;;;;;;5072307;28;20017;-69
2021/05/26 01:19:16;;;;;;;12.43;5.07;;;;;;;;;;5070022;28;20025;-68
2021/05/26 01:21:41;;;;;;;11.87;5.53;;;;;;;;;;5071967;28;20021;-68
2021/05/26 01:24:07;;;;;;;12.87;5.90;;;;;;;;;;5071182;28;20025;-69
2021/05/26 01:26:32;;;;;;;10.77;5.53;;;;;;;;;;5071383;28;20029;-69
2021/05/26 01:28:58;;;;;;;14.40;5.47;;;;;;;;;;5071618;28;20106;-69
2021/05/26 01:31:23;;;;;;;12.73;5.30;;;;;;;;;;5071756;28;20078;-69
2021/05/26 01:33:48;;;;;;;12.67;6.07;;;;;;;;;;5068793;28;20020;-69
2021/05/26 01:36:13;;;;;;;15.30;5.93;;;;;;;;;;5069687;28;20033;-69
2021/05/26 01:38:39;;;;;;;13.33;6.30;;;;;;;;;;5071162;28;20410;-69
2021/05/26 01:41:04;;;;;;;15.37;6.40;;;;;;;;;;5071184;28;20110;-69
2021/05/26 01:43:30;;;;;;;13.17;6.23;;;;;;;;;;5070800;28;20028;-69
2021/05/26 01:45:55;;;;;;;12.70;6.93;;;;;;;;;;5071406;28;20032;-69
2021/05/26 01:48:21;;;;;;;14.90;6.53;;;;;;;;;;5071123;28;20017;-69
2021/05/26 01:50:46;;;;;;;13.47;6.37;;;;;;;;;;5071100;28;20051;-69
2021/05/26 01:53:11;;;;;;;13.13;6.33;;;;;;;;;;5071064;28;20016;-69
2021/05/26 01:55:38;;;;;;;26.43;7.00;;;;;;;;;;5071425;28;20138;-69
2021/05/26 01:58:04;;;;;;;13.00;6.53;;;;;;;;;;5072390;28;20020;-69
2021/05/26 02:00:29;;;;;;;14.93;6.10;;;;;;;;;;5068550;28;20104;-69
2021/05/26 02:02:55;;;;;;;11.43;5.73;;;;;;;;;;5071003;28;20058;-69
2021/05/26 02:05:20;;;;;;;10.43;5.37;;;;;;;;;;5068959;28;20066;-69
2021/05/26 02:07:47;;;;;;;11.77;5.60;;;;;;;;;;5070695;28;20021;-69
2021/05/26 02:10:13;;;;;;;11.90;5.43;;;;;;;;;;5070773;28;20028;-68
2021/05/26 02:12:39;;;;;;;13.57;5.83;;;;;;;;;;5070556;28;20027;-68
2021/05/26 02:15:06;;;;;;;12.50;5.33;;;;;;;;;;5070244;28;20482;-68
2021/05/26 02:17:32;;;;;;;13.20;5.00;;;;;;;;;;5071251;28;20020;-68
2021/05/26 02:19:57;;;;;;;9.80;5.00;;;;;;;;;;5074268;28;20029;-68
2021/05/26 02:22:22;;;;;;;10.30;4.97;;;;;;;;;;5073118;28;20024;-68
2021/05/26 02:24:48;;;;;;;9.47;4.73;;;;;;;;;;5068751;28;20407;-68
2021/05/26 02:27:13;;;;;;;11.00;4.90;;;;;;;;;;5071369;28;20383;-68
2021/05/26 02:29:39;;;;;;;10.60;4.63;;;;;;;;;;5070021;28;20539;-68
2021/05/26 02:32:05;;;;;;;11.87;5.10;;;;;;;;;;5070469;28;20059;-68
2021/05/26 02:34:31;;;;;;;10.60;4.50;;;;;;;;;;5067193;28;20036;-68
2021/05/26 02:36:56;;;;;;;10.93;4.37;;;;;;;;;;5069590;28;20024;-68
2021/05/26 02:39:21;;;;;;;9.87;4.53;;;;;;;;;;5069402;28;20044;-66
2021/05/26 02:41:47;;;;;;;9.33;4.30;;;;;;;;;;5070741;28;20065;-66
2021/05/26 02:44:12;;;;;;;9.90;4.47;;;;;;;;;;5065824;28;20499;-66
2021/05/26 02:46:38;;;;;;;13.37;4.70;;;;;;;;;;5051174;28;20035;-66
2021/05/26 02:49:05;;;;;;;10.27;4.83;;;;;;;;;;5066451;28;20043;-66
2021/05/26 02:51:30;;;;;;;10.30;4.83;;;;;;;;;;5069619;28;20020;-66
2021/05/26 02:53:55;;;;;;;10.23;4.63;;;;;;;;;;5069128;28;20023;-66
2021/05/26 02:56:21;;;;;;;11.13;4.47;;;;;;;;;;5069947;28;20028;-66
2021/05/26 02:58:46;;;;;;;9.37;4.43;;;;;;;;;;5069362;28;20518;-66
2021/05/26 03:01:11;;;;;;;8.17;4.13;;;;;;;;;;5067726;28;20051;-66
2021/05/26 03:03:36;;;;;;;9.23;4.37;;;;;;;;;;5068821;28;20481;-66
2021/05/26 03:06:02;;;;;;;12.03;5.00;;;;;;;;;;5069403;28;20043;-66
2021/05/26 03:08:27;;;;;;;8.97;4.60;;;;;;;;;;5070363;28;20715;-66
2021/05/26 03:10:56;;;;;;;9.97;5.27;;;;;;;;;;5069167;28;20501;-66
2021/05/26 03:13:21;;;;;;;10.33;5.17;;;;;;;;;;5069309;28;20032;-66
2021/05/26 03:15:47;;;;;;;12.40;5.20;;;;;;;;;;5069742;28;20125;-66
2021/05/26 03:18:12;;;;;;;9.87;4.87;;;;;;;;;;5069744;28;20039;-66
2021/05/26 03:20:37;;;;;;;13.37;4.60;;;;;;;;;;5069384;28;20012;-66
2021/05/26 03:23:03;;;;;;;11.97;5.87;;;;;;;;;;5069744;28;20024;-66
2021/05/26 03:25:28;;;;;;;12.07;5.77;;;;;;;;;;5068192;28;20634;-66
2021/05/26 03:27:53;;;;;;;10.37;4.90;;;;;;;;;;5069101;28;20066;-68
2021/05/26 03:30:19;;;;;;;12.10;5.67;;;;;;;;;;5069915;28;20058;-66
2021/05/26 03:32:45;;;;;;;14.20;6.60;;;;;;;;;;5069761;28;20099;-66
2021/05/26 03:35:11;;;;;;;12.73;6.43;;;;;;;;;;5067895;28;20055;-66
2021/05/26 03:37:37;;;;;;;13.37;6.57;;;;;;;;;;5068296;28;20033;-66
2021/05/26 03:40:03;;;;;;;13.37;6.07;;;;;;;;;;5066590;28;20039;-66
2021/05/26 03:42:28;;;;;;;13.97;6.07;;;;;;;;;;5068724;28;20356;-66
2021/05/26 03:44:53;;;;;;;14.00;5.83;;;;;;;;;;5069114;28;20023;-66
2021/05/26 03:47:19;;;;;;;18.47;6.57;;;;;;;;;;5068763;28;20035;-66
2021/05/26 03:49:44;;;;;;;14.60;5.83;;;;;;;;;;5069564;28;20051;-66
2021/05/26 03:52:10;;;;;;;16.37;6.77;;;;;;;;;;5068816;28;20078;-66
2021/05/26 03:54:35;;;;;;;14.63;6.43;;;;;;;;;;5069426;28;20020;-66
2021/05/26 03:57:01;;;;;;;12.87;5.97;;;;;;;;;;5070964;28;20036;-66
2021/05/26 03:59:27;;;;;;;14.80;7.43;;;;;;;;;;5069247;28;20024;-66
2021/05/26 04:01:52;;;;;;;12.37;5.93;;;;;;;;;;5068478;28;20031;-66
2021/05/26 04:04:17;;;;;;;17.23;6.70;;;;;;;;;;5068471;28;20044;-66
2021/05/26 04:06:42;;;;;;;14.10;6.43;;;;;;;;;;5068941;28;20046;-66
2021/05/26 04:09:08;;;;;;;14.90;6.60;;;;;;;;;;5068419;28;20081;-66
2021/05/26 04:11:33;;;;;;;16.53;7.00;;;;;;;;;;5068071;28;20020;-66
2021/05/26 04:13:58;;;;;;;17.50;7.40;;;;;;;;;;5069328;28;20091;-66
2021/05/26 04:16:24;;;;;;;15.70;6.63;;;;;;;;;;5068792;28;20029;-66
2021/05/26 04:18:49;;;;;;;14.10;5.93;;;;;;;;;;5068187;28;20524;-66
2021/05/26 04:21:14;;;;;;;17.10;7.43;;;;;;;;;;5066632;28;20074;-68
2021/05/26 04:23:40;;;;;;;15.73;6.97;;;;;;;;;;5068401;28;20036;-68
2021/05/26 04:26:05;;;;;;;16.43;7.27;;;;;;;;;;5050849;28;20020;-66
2021/05/26 04:28:30;;;;;;;16.17;6.97;;;;;;;;;;5068330;28;20024;-66
2021/05/26 04:30:55;;;;;;;17.03;7.03;;;;;;;;;;5067630;28;20112;-66
2021/05/26 04:33:21;;;;;;;17.60;7.60;;;;;;;;;;5068342;28;20035;-66
2021/05/26 04:35:46;;;;;;;18.20;8.20;;;;;;;;;;5048977;28;20111;-66
2021/05/26 04:38:12;;;;;;;17.67;7.90;;;;;;;;;;5067892;28;20020;-66
2021/05/26 04:40:37;;;;;;;21.97;8.20;;;;;;;;;;5068399;28;20090;-66
2021/05/26 04:43:02;;;;;;;19.47;8.43;;;;;;;;;;5068728;28;20024;-66
2021/05/26 04:45:28;;;;;;;17.47;7.57;;;;;;;;;;5068070;28;20115;-66
2021/05/26 04:47:53;;;;;;;16.83;8.53;;;;;;;;;;5070985;28;20056;-66
2021/05/26 04:50:18;;;;;;;16.13;7.63;;;;;;;;;;5068326;28;20054;-66
2021/05/26 04:52:43;;;;;;;20.67;8.20;;;;;;;;;;5072809;28;20031;-66
2021/05/26 04:55:09;;;;;;;17.87;7.40;;;;;;;;;;5071290;28;20031;-66
2021/05/26 04:57:34;;;;;;;15.77;6.90;;;;;;;;;;5073972;28;20028;-66
2021/05/26 05:00:00;;;;;;;22.07;7.40;;;;;;;;;;5052282;28;20025;-66
2021/05/26 05:02:25;;;;;;;15.33;6.60;;;;;;;;;;5072280;28;20020;-66
2021/05/26 05:04:50;;;;;;;20.33;6.13;;;;;;;;;;5072040;28;20052;-66
2021/05/26 05:07:15;;;;;;;14.50;6.40;;;;;;;;;;5071703;28;20054;-66
2021/05/26 05:09:41;;;;;;;12.50;6.10;;;;;;;;;;5071281;28;20013;-66
2021/05/26 05:12:06;;;;;;;15.93;5.77;;;;;;;;;;5072682;28;20095;-66
2021/05/26 05:14:31;;;;;;;13.47;5.27;;;;;;;;;;5072389;28;20028;-66
2021/05/26 05:16:57;;;;;;;13.30;5.57;;;;;;;;;;5072493;28;20024;-66
2021/05/26 05:19:22;;;;;;;10.47;5.20;;;;;;;;;;5073170;28;20036;-66
2021/05/26 05:21:47;;;;;;;11.00;5.03;;;;;;;;;;5077686;28;20466;-66
2021/05/26 05:24:12;;;;;;;10.20;4.90;;;;;;;;;;5076063;28;20029;-66
2021/05/26 05:26:38;;;;;;;11.93;4.67;;;;;;;;;;5075792;28;20055;-66
2021/05/26 05:29:03;;;;;;;11.27;4.27;;;;;;;;;;5073799;28;20023;-66
2021/05/26 05:31:31;;;;;;;8.83;4.03;;;;;;;;;;5073289;28;20439;-66
2021/05/26 05:33:56;;;;;;;10.90;4.07;;;;;;;;;;5072895;28;20016;-66
2021/05/26 05:36:21;;;;;;;11.80;4.27;;;;;;;;;;5073326;28;20044;-66
2021/05/26 05:38:47;;;;;;;9.73;4.33;;;;;;;;;;5074717;28;20056;-66
2021/05/26 05:41:12;;;;;;;11.47;4.17;;;;;;;;;;5074761;28;20380;-69
2021/05/26 05:43:37;;;;;;;12.60;4.57;;;;;;;;;;5079746;28;20024;-67
2021/05/26 05:46:03;;;;;;;8.87;3.60;;;;;;;;;;5077268;28;20123;-67
2021/05/26 05:48:28;;;;;;;9.03;3.30;;;;;;;;;;5071764;28;20447;-67
2021/05/26 05:50:53;;;;;;;8.20;3.20;;;;;;;;;;5072501;28;20024;-67
2021/05/26 05:53:18;;;;;;;11.20;4.70;;;;;;;;;;5072808;28;20024;-67
2021/05/26 05:55:44;;;;;;;8.93;3.80;;;;;;;;;;5073943;28;20059;-67
2021/05/26 05:58:11;;;;;;;7.50;4.13;;;;;;;;;;5076845;28;20507;-67
2021/05/26 06:00:38;;;;;;;7.53;3.77;;;;;;;;;;5073178;28;20431;-67
2021/05/26 06:03:03;;;;;;;6.97;3.37;;;;;;;;;;5080265;28;20077;-67
2021/05/26 06:05:29;;;;;;;6.50;3.00;;;;;;;;;;5081627;28;20063;-67
2021/05/26 06:07:54;;;;;;;5.10;2.37;;;;;;;;;;5077209;28;20032;-67
2021/05/26 06:10:19;;;;;;;11.07;3.00;;;;;;;;;;5072389;28;20048;-67
2021/05/26 06:12:46;;;;;;;5.83;2.30;;;;;;;;;;5071248;28;20521;-67
2021/05/26 06:15:12;;;;;;;8.63;2.30;;;;;;;;;;5079001;28;20115;-67
2021/05/26 06:17:37;;;;;;;7.30;2.33;;;;;;;;;;5071712;28;20103;-67
2021/05/26 06:20:03;;;;;;;5.23;2.37;;;;;;;;;;5067533;28;20025;-67
2021/05/26 06:22:28;;;;;;;6.73;2.10;;;;;;;;;;5080934;28;20475;-67
2021/05/26 06:24:53;;;;;;;6.07;2.60;;;;;;;;;;5076387;28;20028;-67
2021/05/26 06:27:18;;;;;;;4.50;2.00;;;;;;;;;;5073597;28;20031;-67
2021/05/26 06:29:44;;;;;;;4.30;2.20;;;;;;;;;;5076552;28;20086;-67
2021/05/26 06:32:09;;;;;;;5.50;2.37;;;;;;;;;;5074173;28;20517;-68
2021/05/26 06:34:34;;;;;;;4.40;1.90;;;;;;;;;;5076632;28;20354;-68
2021/05/26 06:37:01;;;;;;;3.30;1.50;;;;;;;;;;5077329;28;20472;-68
2021/05/26 06:39:26;;;;;;;3.87;1.70;;;;;;;;;;5072198;28;20368;-67
2021/05/26 06:41:51;;;;;;;2.83;1.37;;;;;;;;;;5079908;28;20098;-67
2021/05/26 06:44:17;;;;;;;4.73;1.80;;;;;;;;;;5071312;28;20033;-66
2021/05/26 06:46:42;;;;;;;3.03;1.37;;;;;;;;;;5077299;28;20122;-66
2021/05/26 06:49:08;;;;;;;5.10;1.80;;;;;;;;;;5078226;28;20103;-66
2021/05/26 06:51:33;;;;;;;2.73;1.40;;;;;;;;;;5075436;28;20020;-66
2021/05/26 06:53:58;;;;;;;5.23;1.70;;;;;;;;;;5071267;28;20373;-66
2021/05/26 06:56:24;;;;;;;4.93;1.60;;;;;;;;;;5071990;28;20028;-67
2021/05/26 06:58:49;;;;;;;4.70;1.40;;;;;;;;;;5073292;28;20060;-67
2021/05/26 07:01:14;;;;;;;3.63;1.50;;;;;;;;;;5066963;28;20041;-67
2021/05/26 07:03:40;;;;;;;5.27;1.70;;;;;;;;;;5071555;28;20039;-68
2021/05/26 07:06:05;;;;;;;3.60;1.57;;;;;;;;;;5071672;28;20048;-68
2021/05/26 07:08:31;;;;;;;3.17;1.43;;;;;;;;;;5071757;28;20472;-67
2021/05/26 07:10:56;;;;;;;4.40;1.80;;;;;;;;;;5075082;28;20379;-67
2021/05/26 07:13:22;;;;;;;3.50;1.50;;;;;;;;;;5071597;28;20033;-67
2021/05/26 07:15:47;;;;;;;4.30;1.60;;;;;;;;;;5082373;28;20111;-67
2021/05/26 07:18:12;;;;;;;6.03;1.60;;;;;;;;;;5071409;28;20488;-68
2021/05/26 07:20:40;;;;;;;4.33;1.70;;;;;;;;;;5071872;28;20046;-68
2021/05/26 07:23:06;;;;;;;4.90;1.63;;;;;;;;;;5071155;28;20533;-68
2021/05/26 07:25:31;;;;;;;3.27;1.70;;;;;;;;;;5074089;28;20040;-68
2021/05/26 07:27:56;;;;;;;3.30;1.60;;;;;;;;;;5071118;28;20033;-68
2021/05/26 07:30:22;;;;;;;4.83;1.47;;;;;;;;;;5082939;28;20034;-68
2021/05/26 07:32:48;;;;;;;5.67;1.67;;;;;;;;;;5072136;28;20064;-68
2021/05/26 07:35:14;;;;;;;4.57;2.00;;;;;;;;;;5071408;28;20111;-68
2021/05/26 07:37:40;;;;;;;4.47;1.70;;;;;;;;;;5071541;28;20527;-68
2021/05/26 07:40:06;;;;;;;3.57;1.93;;;;;;;;;;5080417;28;20016;-68
2021/05/26 07:42:31;;;;;;;4.20;1.77;;;;;;;;;;5071443;28;20020;-68
2021/05/26 07:44:57;;;;;;;4.00;1.43;;;;;;;;;;5071019;28;20029;-68
2021/05/26 07:47:22;;;;;;;4.57;1.80;;;;;;;;;;5070759;28;20092;-68
2021/05/26 07:49:47;;;;;;;3.50;1.83;;;;;;;;;;5076703;28;20093;-68
2021/05/26 07:52:19;;;;;;;3.87;1.57;;;;;;;;;;5072568;28;20537;-68
2021/05/26 07:54:44;;;;;;;3.00;1.33;;;;;;;;;;5070556;28;20013;-69
2021/05/26 07:57:09;;;;;;;3.80;1.90;;;;;;;;;;5072120;28;20147;-69
2021/05/26 07:59:34;;;;;;;5.13;1.90;;;;;;;;;;5074394;28;20012;-69
2021/05/26 08:02:00;;;;;;;5.57;1.90;;;;;;;;;;5072857;28;20039;-69
2021/05/26 08:04:25;;;;;;;5.20;2.13;;;;;;;;;;5072550;28;20516;-69
2021/05/26 08:06:50;;;;;;;4.67;1.80;;;;;;;;;;5071803;28;20074;-69
2021/05/26 08:09:16;;;;;;;3.07;1.57;;;;;;;;;;5072022;28;20082;-69
2021/05/26 08:11:41;;;;;;;4.10;1.80;;;;;;;;;;5075208;28;20016;-69
2021/05/26 08:14:06;;;;;;;4.40;1.80;;;;;;;;;;5079321;28;20525;-68
2021/05/26 08:16:31;;;;;;;4.50;1.90;;;;;;;;;;5071685;28;20380;-68
2021/05/26 08:18:57;;;;;;;6.73;2.17;;;;;;;;;;5074114;28;20017;-69
2021/05/26 08:21:22;;;;;;;3.43;1.63;;;;;;;;;;5072224;28;20100;-69
2021/05/26 08:23:47;;;;;;;5.17;2.00;;;;;;;;;;5069667;28;20031;-69
2021/05/26 08:26:22;;;;;;;4.07;1.77;;;;;;;;;;5073736;28;20070;-69
2021/05/26 08:28:48;;;;;;;6.90;2.27;;;;;;;;;;5087557;28;20028;-69
2021/05/26 08:31:13;;;;;;;5.27;2.43;;;;;;;;;;5079161;28;20422;-69
2021/05/26 08:33:40;;;;;;;5.23;2.70;;;;;;;;;;5078457;28;20029;-69
2021/05/26 08:36:06;;;;;;;4.83;2.33;;;;;;;;;;5073688;28;20025;-69
2021/05/26 08:38:31;;;;;;;7.13;3.20;;;;;;;;;;5074789;28;20020;-68
2021/05/26 08:40:56;;;;;;;5.97;2.93;;;;;;;;;;5074699;28;20029;-68
2021/05/26 08:43:23;;;;;;;6.57;2.77;;;;;;;;;;5077518;28;20034;-68
2021/05/26 08:45:48;;;;;;;7.77;2.97;;;;;;;;;;5086437;28;20056;-67
2021/05/26 08:48:16;;;;;;;9.60;3.50;;;;;;;;;;5073917;28;20059;-68
2021/05/26 08:50:44;;;;;;;7.53;3.20;;;;;;;;;;5083615;28;20029;-68
2021/05/26 08:53:10;;;;;;;7.57;3.20;;;;;;;;;;5078708;28;20020;-68
2021/05/26 08:55:36;;;;;;;7.73;3.87;;;;;;;;;;5067837;28;20166;-68
2021/05/26 08:58:01;;;;;;;8.93;3.53;;;;;;;;;;5081386;28;20494;-69
2021/05/26 09:00:26;;;;;;;8.37;3.40;;;;;;;;;;5069028;28;20025;-69
2021/05/26 09:02:51;;;;;;;9.73;3.67;;;;;;;;;;5064873;28;20031;-69
2021/05/26 09:05:20;;;;;;;7.70;3.40;;;;;;;;;;5082011;28;20053;-69
2021/05/26 09:07:46;;;;;;;6.87;3.43;;;;;;;;;;5078996;28;20024;-69
2021/05/26 09:10:11;;;;;;;7.90;4.13;;;;;;;;;;5079939;28;21387;-69
2021/05/26 09:12:40;;;;;;;11.50;3.93;;;;;;;;;;5081481;28;20486;-69
2021/05/26 09:15:07;;;;;;;7.77;3.90;;;;;;;;;;5082069;28;20173;-69
2021/05/26 09:17:33;;;;;;;11.53;3.90;;;;;;;;;;5074602;28;20032;-69
2021/05/26 09:20:22;;;;;;;8.17;3.83;;;;;;;;;;5074086;28;20025;-69
2021/05/26 09:23:12;;;;;;;6.00;3.10;;;;;;;;;;5077463;28;20024;-69
2021/05/26 09:25:39;;;;;;;8.57;3.67;;;;;;;;;;5072799;28;20476;-68
2021/05/26 09:28:15;;;;;;;6.63;2.60;;;;;;;;;;5072237;28;20021;-68
2021/05/26 09:30:41;;;;;;;7.27;2.93;;;;;;;;;;5070108;28;20033;-68
2021/05/26 09:33:22;;;;;;;8.90;2.77;;;;;;;;;;5073200;28;20107;-67
2021/05/26 09:35:50;;;;;;;5.45;2.65;;;;;;;;;;5081047;28;20028;-68
2021/05/26 09:38:15;;;;;;;6.13;2.20;;;;;;;;;;5080047;28;20032;-68
2021/05/26 09:40:40;;;;;;;6.77;2.90;;;;;;;;;;5079061;28;20439;-69
2021/05/26 09:43:06;;;;;;;5.77;2.93;;;;;;;;;;5083079;28;20032;-69
2021/05/26 09:45:31;;;;;;;5.87;2.90;;;;;;;;;;5075614;28;20107;-69
2021/05/26 09:47:57;;;;;;;5.90;2.63;;;;;;;;;;5073558;28;20029;-69
2021/05/26 09:50:30;;;;;;;4.43;2.60;;;;;;;;;;5086434;28;20532;-69
2021/05/26 09:52:56;;;;;;;10.17;3.17;;;;;;;;;;5076053;28;20028;-69
2021/05/26 09:55:23;;;;;;;6.50;2.90;;;;;;;;;;5085785;28;20024;-69
2021/05/26 09:57:52;;;;;;;9.17;3.70;;;;;;;;;;5080208;28;20077;-70
2021/05/26 10:00:18;;;;;;;8.17;2.80;;;;;;;;;;5085007;28;20025;-69
2021/05/26 10:02:44;;;;;;;6.17;2.80;;;;;;;;;;5081113;28;20120;-69
2021/05/26 10:05:10;;;;;;;5.50;2.47;;;;;;;;;;5083242;28;20127;-69
2021/05/26 10:07:36;;;;;;;6.13;2.30;;;;;;;;;;5073067;28;20047;-69
2021/05/26 10:10:02;;;;;;;5.83;2.60;;;;;;;;;;5073494;28;20047;-69
2021/05/26 10:12:28;;;;;;;5.80;2.30;;;;;;;;;;5079779;28;20016;-69
2021/05/26 10:14:53;;;;;;;12.13;2.70;;;;;;;;;;5073630;28;20024;-69
2021/05/26 10:17:23;;;;;;;6.67;2.77;;;;;;;;;;5078237;28;20118;-69
2021/05/26 10:19:49;;;;;;;6.30;2.43;;;;;;;;;;5077944;28;20024;-69
2021/05/26 10:22:15;;;;;;;7.03;2.67;;;;;;;;;;5080521;28;20031;-69
2021/05/26 10:24:44;;;;;;;4.70;2.20;;;;;;;;;;5082463;28;20064;-69
2021/05/26 10:27:09;;;;;;;4.47;2.50;;;;;;;;;;5085875;28;20027;-69
2021/05/26 10:29:35;;;;;;;5.13;2.70;;;;;;;;;;5079066;28;20461;-69
2021/05/26 10:32:02;;;;;;;6.70;2.93;;;;;;;;;;5086377;28;20036;-69
2021/05/26 10:34:42;;;;;;;6.47;2.50;;;;;;;;;;5079662;28;20028;-69
2021/05/26 10:37:11;;;;;;;6.30;2.70;;;;;;;;;;5078332;28;20027;-69
2021/05/26 10:39:37;;;;;;;5.27;2.77;;;;;;;;;;5080903;28;20597;-70
2021/05/26 10:42:03;;;;;;;8.47;2.47;;;;;;;;;;5078447;28;20044;-70
2021/05/26 10:44:47;;;;;;;6.83;3.23;;;;;;;;;;5072241;28;20480;-70
2021/05/26 10:47:31;;;;;;;9.17;4.07;;;;;;;;;;5084900;28;20040;-70
2021/05/26 10:49:56;;;;;;;8.70;3.93;;;;;;;;;;5073579;28;20107;-70
2021/05/26 10:52:22;;;;;;;12.20;4.07;;;;;;;;;;5084383;28;20108;-69
2021/05/26 10:54:47;;;;;;;9.40;4.00;;;;;;;;;;5074679;28;20029;-69
2021/05/26 10:57:12;;;;;;;8.67;3.27;;;;;;;;;;5072146;28;20488;-69
2021/05/26 10:59:38;;;;;;;11.13;4.13;;;;;;;;;;5083061;28;20024;-69
2021/05/26 11:02:08;;;;;;;10.63;5.00;;;;;;;;;;5079587;28;20418;-69
2021/05/26 11:04:34;;;;;;;9.03;4.30;;;;;;;;;;5075935;28;20127;-69
2021/05/26 11:07:18;;;;;;;9.17;4.13;;;;;;;;;;5076882;28;20032;-69
2021/05/26 11:09:52;;;;;;;11.10;4.13;;;;;;;;;;5071492;28;20035;-69
2021/05/26 11:12:17;;;;;;;10.50;4.17;;;;;;;;;;5071636;28;20192;-69
2021/05/26 11:14:42;;;;;;;9.63;3.60;;;;;;;;;;5071534;28;20060;-69
2021/05/26 11:17:08;;;;;;;10.87;3.70;;;;;;;;;;5073142;28;20024;-70
2021/05/26 11:19:33;;;;;;;8.07;3.40;;;;;;;;;;5078188;28;20310;-70
2021/05/26 11:22:00;;;;;;;7.60;3.60;;;;;;;;;;5073906;28;20104;-70
2021/05/26 11:24:26;;;;;;;5.87;3.53;;;;;;;;;;5071502;28;20025;-69
2021/05/26 11:26:52;;;;;;;6.43;3.33;;;;;;;;;;5071749;28;20060;-69
2021/05/26 11:29:30;;;;;;;6.97;3.33;;;;;;;;;;5071756;28;20461;-69
2021/05/26 11:32:05;;;;;;;6.67;3.10;;;;;;;;;;5074495;28;20031;-69
2021/05/26 11:34:30;;;;;;;5.63;2.40;;;;;;;;;;5068138;28;20016;-69
2021/05/26 11:36:55;;;;;;;8.57;3.30;;;;;;;;;;5071730;28;20379;-69
2021/05/26 11:39:27;;;;;;;1.90;1.10;;;;;;;;;;5083930;28;20031;-69
2021/05/26 11:42:08;;;;;;;1.50;1.05;;;;;;;;;;5073777;28;20086;-69
2021/05/26 11:44:43;;;;;;;1.90;0.90;;;;;;;;;;5078057;28;20105;-69
2021/05/26 11:47:09;;;;;;;7.50;1.90;;;;;;;;;;5071402;28;20017;-69
2021/05/26 11:49:37;;;;;;;3.67;1.20;;;;;;;;;;5071079;28;20368;-68
2021/05/26 11:52:06;;;;;;;4.27;1.13;;;;;;;;;;5071311;28;20016;-68
2021/05/26 11:54:31;;;;;;;3.40;1.67;;;;;;;;;;5072958;28;20032;-68
2021/05/26 11:56:57;;;;;;;3.20;1.47;;;;;;;;;;5086461;28;20024;-68
2021/05/26 11:59:27;;;;;;;3.10;1.47;;;;;;;;;;5079655;28;20021;-68
2021/05/26 12:01:52;;;;;;;6.77;1.37;;;;;;;;;;5077249;28;20361;-68
2021/05/26 12:04:19;;;;;;;3.63;1.47;;;;;;;;;;5080380;28;20044;-68
2021/05/26 12:06:44;;;;;;;3.63;1.23;;;;;;;;;;5090310;28;20020;-68
2021/05/26 12:09:23;;;;;;;2.27;1.30;;;;;;;;;;5075975;28;20074;-69
2021/05/26 12:11:48;;;;;;;4.20;1.40;;;;;;;;;;5083197;28;20487;-68
2021/05/26 12:14:23;;;;;;;4.80;1.30;;;;;;;;;;5080475;28;20020;-69
2021/05/26 12:16:48;;;;;;;4.00;1.17;;;;;;;;;;5082674;28;20062;-68
2021/05/26 12:19:14;;;;;;;3.07;1.33;;;;;;;;;;5081525;28;20392;-68
2021/05/26 12:21:39;;;;;;;4.33;1.50;;;;;;;;;;5075319;28;20035;-68
2021/05/26 12:24:07;;;;;;;3.70;1.50;;;;;;;;;;5086555;28;20038;-68
2021/05/26 12:26:36;;;;;;;3.00;1.40;;;;;;;;;;5079263;28;20127;-69
2021/05/26 12:29:11;;;;;;;2.90;1.33;;;;;;;;;;5078093;28;20101;-69
2021/05/26 12:31:37;;;;;;;3.50;1.60;;;;;;;;;;5076067;28;20024;-69
2021/05/26 12:34:14;;;;;;;3.47;1.37;;;;;;;;;;5087032;28;20115;-69
2021/05/26 12:36:46;;;;;;;4.13;1.40;;;;;;;;;;5079005;28;20524;-72
2021/05/26 12:39:11;;;;;;;3.20;1.52;;;;;;;;;;5081121;28;20040;-69
2021/05/26 12:41:37;;;;;;;4.00;1.40;;;;;;;;;;5061189;28;20024;-69
2021/05/26 12:44:02;;;;;;;3.70;1.60;;;;;;;;;;5077411;28;20075;-69
2021/05/26 12:46:37;;;;;;;3.47;1.60;;;;;;;;;;5074875;28;20032;-69
2021/05/26 12:49:04;;;;;;;2.77;1.47;;;;;;;;;;5083513;28;20100;-68
2021/05/26 12:51:38;;;;;;;3.07;1.40;;;;;;;;;;5084081;28;20102;-68
2021/05/26 12:54:03;;;;;;;3.27;1.73;;;;;;;;;;5077242;28;20402;-68
2021/05/26 12:56:30;;;;;;;4.80;2.00;;;;;;;;;;5075576;28;20035;-68
2021/05/26 12:58:55;;;;;;;3.30;1.47;;;;;;;;;;5077131;28;20078;-68
2021/05/26 13:01:20;;;;;;;4.60;1.90;;;;;;;;;;5076275;28;20475;-68
2021/05/26 13:03:46;;;;;;;2.37;1.23;;;;;;;;;;5075646;28;20028;-69
2021/05/26 13:06:12;;;;;;;3.47;1.63;;;;;;;;;;5075099;28;20025;-69
2021/05/26 13:08:37;;;;;;;4.13;1.50;;;;;;;;;;5075512;28;20360;-69
2021/05/26 13:11:04;;;;;;;3.97;1.50;;;;;;;;;;5084285;28;20025;-69
2021/05/26 13:13:33;;;;;;;3.87;1.87;;;;;;;;;;5075392;28;20021;-69
2021/05/26 13:16:06;;;;;;;4.17;1.60;;;;;;;;;;5068604;28;20429;-69
2021/05/26 13:18:32;;;;;;;3.17;1.63;;;;;;;;;;5077315;28;20020;-69
2021/05/26 13:21:00;;;;;;;4.50;1.90;;;;;;;;;;5082157;28;20350;-69
2021/05/26 13:23:25;;;;;;;4.27;1.73;;;;;;;;;;5072913;28;20021;-69
2021/05/26 13:25:52;;;;;;;4.40;1.70;;;;;;;;;;5078045;28;20036;-69
2021/05/26 13:28:18;;;;;;;5.53;1.70;;;;;;;;;;5078894;28;20036;-69
2021/05/26 13:30:44;;;;;;;3.40;1.60;;;;;;;;;;5091986;28;20480;-69
2021/05/26 13:33:09;;;;;;;2.87;1.30;;;;;;;;;;5075093;28;20070;-69
2021/05/26 13:35:35;;;;;;;1.43;0.80;;;;;;;;;;5079217;28;20024;-69
2021/05/26 13:38:02;;;;;;;1.70;1.10;;;;;;;;;;5073115;28;20039;-69
2021/05/26 13:40:27;;;;;;;1.40;1.00;;;;;;;;;;5077100;28;20632;-69
2021/05/26 13:42:53;;;;;;;2.00;1.00;;;;;;;;;;5078034;28;20363;-71
2021/05/26 13:45:19;;;;;;;1.60;0.90;;;;;;;;;;5079439;28;20036;-70
2021/05/26 13:47:44;;;;;;;1.10;0.67;;;;;;;;;;5072117;28;20409;-70
2021/05/26 13:50:15;;;;;;;2.53;1.13;;;;;;;;;;5074808;28;20016;-70
2021/05/26 13:52:41;;;;;;;1.90;1.00;;;;;;;;;;5078079;28;20492;-70
2021/05/26 13:55:06;;;;;;;2.03;1.00;;;;;;;;;;5080998;28;20062;-70
2021/05/26 13:57:32;;;;;;;1.40;1.00;;;;;;;;;;5079872;28;20093;-70
2021/05/26 13:59:57;;;;;;;4.90;1.47;;;;;;;;;;5079634;28;20033;-70
2021/05/26 14:02:22;;;;;;;1.73;0.90;;;;;;;;;;5072598;28;20386;-70
2021/05/26 14:04:49;;;;;;;1.83;0.87;;;;;;;;;;5075577;28;20079;-70
2021/05/26 14:07:14;;;;;;;2.87;1.27;;;;;;;;;;5072379;28;20051;-70
2021/05/26 14:09:39;;;;;;;1.80;1.00;;;;;;;;;;5077400;28;20044;-71
2021/05/26 14:12:04;;;;;;;1.87;1.00;;;;;;;;;;5073875;28;20029;-70
2021/05/26 14:14:30;;;;;;;1.10;0.70;;;;;;;;;;5072652;28;20028;-70
2021/05/26 14:16:56;;;;;;;2.37;1.10;;;;;;;;;;5072299;28;20064;-70
2021/05/26 14:19:21;;;;;;;2.60;1.00;;;;;;;;;;5071916;28;20052;-70
2021/05/26 14:21:46;;;;;;;3.67;1.10;;;;;;;;;;5073162;28;20020;-70
2021/05/26 14:24:11;;;;;;;2.57;1.00;;;;;;;;;;5077696;28;20025;-70
2021/05/26 14:26:37;;;;;;;2.40;0.90;;;;;;;;;;5076565;28;20033;-70
2021/05/26 14:29:06;;;;;;;6.30;1.10;;;;;;;;;;5081276;28;20052;-70
2021/05/26 14:31:31;;;;;;;2.97;1.10;;;;;;;;;;5075803;28;20475;-70
2021/05/26 14:33:57;;;;;;;1.40;0.80;;;;;;;;;;5080510;28;20027;-70